Allakaket, Alaska
Current Conditions -  °F | °C
As of 11:18 AM on Monday 24 Nov 2014 (Local Time) from PABT Reporting Station
Light Snow Light Snow  
Wind Chill: -13°   Ceiling: 2800
Heat Index: -13°   Visibility: 10mi
Dew Point: -16°   Wind: 0mph
Humidity: 80%   Direction: NA
Pressure: 29.79"   Gusts: NA
Location:  66.57°N, 152.65°W
Report Text: PABT 242018Z 00000KT 10SM -SN BKN028 OVC060 M13/M16 A2979 RMK AO2 T11331161
Loading
Personal Weather Stations






























Interactive Weather Map New forecast layout! Learn more

10-Day Weather Forecast

Advertisements
Track Severe Weather on mobile